createdAt,value
2018-07-24T00:00:05.060Z,19.00
2018-07-24T00:01:04.885Z,18.90
2018-07-24T00:02:05.474Z,18.90
2018-07-24T00:03:05.279Z,18.90
2018-07-24T00:04:05.302Z,18.90
2018-07-24T00:05:04.945Z,18.90
2018-07-24T00:06:05.446Z,18.80
2018-07-24T00:07:05.204Z,18.80
2018-07-24T00:08:04.949Z,18.80
2018-07-24T00:09:05.778Z,18.80
2018-07-24T00:10:05.066Z,18.80
2018-07-24T00:11:04.893Z,18.80
2018-07-24T00:12:04.983Z,18.70
2018-07-24T00:13:05.084Z,18.70
2018-07-24T00:14:05.528Z,18.70
2018-07-24T00:15:04.959Z,18.70
2018-07-24T00:16:04.921Z,18.70
2018-07-24T00:17:05.168Z,18.70
2018-07-24T00:18:04.934Z,18.60
2018-07-24T00:19:05.409Z,18.60
2018-07-24T00:20:04.734Z,18.60
2018-07-24T00:21:04.965Z,18.60
2018-07-24T00:22:04.909Z,18.60
2018-07-24T00:23:09.703Z,18.50
2018-07-24T00:24:05.552Z,18.50
2018-07-24T00:25:04.640Z,18.50
2018-07-24T00:26:04.579Z,18.40
2018-07-24T00:27:04.957Z,18.40
2018-07-24T00:28:04.695Z,18.40
2018-07-24T00:29:05.393Z,18.40
2018-07-24T00:30:05.412Z,18.40
2018-07-24T00:31:05.129Z,18.30
2018-07-24T00:32:05.229Z,18.30
2018-07-24T00:33:05.024Z,18.30
2018-07-24T00:34:04.978Z,18.30
2018-07-24T00:35:04.935Z,18.30
2018-07-24T00:36:05.596Z,18.20
2018-07-24T00:37:05.467Z,18.20
2018-07-24T00:38:05.007Z,18.20
2018-07-24T00:39:04.961Z,18.20
2018-07-24T00:40:04.852Z,18.20
2018-07-24T00:41:05.387Z,18.20
2018-07-24T00:42:04.805Z,18.20
2018-07-24T00:43:04.735Z,18.20
2018-07-24T00:44:05.296Z,18.10
2018-07-24T00:45:05.287Z,18.10
2018-07-24T00:46:04.570Z,18.10
2018-07-24T00:47:05.227Z,18.10
2018-07-24T00:48:05.331Z,18.10
2018-07-24T00:49:04.850Z,18.10
2018-07-24T00:50:04.836Z,18.00
2018-07-24T00:51:04.795Z,18.00
2018-07-24T00:52:04.839Z,18.00
2018-07-24T00:53:04.563Z,18.00
2018-07-24T00:54:04.992Z,18.00
2018-07-24T00:55:04.925Z,18.00
2018-07-24T00:56:05.370Z,18.00
2018-07-24T00:57:04.954Z,17.90
2018-07-24T00:58:05.384Z,17.90
2018-07-24T00:59:05.156Z,17.90
2018-07-24T01:00:04.675Z,17.90
2018-07-24T01:01:04.897Z,17.90
2018-07-24T01:02:05.509Z,17.80
2018-07-24T01:03:05.668Z,17.80
2018-07-24T01:04:05.486Z,17.80
2018-07-24T01:05:05.301Z,17.80
2018-07-24T01:06:05.171Z,17.80
2018-07-24T01:07:04.778Z,17.80
2018-07-24T01:08:04.782Z,17.80
2018-07-24T01:09:04.727Z,17.80
2018-07-24T01:10:04.594Z,17.80
2018-07-24T01:11:05.028Z,17.80
2018-07-24T01:12:05.286Z,17.80
2018-07-24T01:13:05.356Z,17.80
2018-07-24T01:14:04.894Z,17.80
2018-07-24T01:15:10.131Z,17.80
2018-07-24T01:16:05.091Z,17.80
2018-07-24T01:17:05.360Z,17.80
2018-07-24T01:18:05.176Z,17.80
2018-07-24T01:19:05.396Z,17.80
2018-07-24T01:20:04.590Z,17.80
2018-07-24T01:21:05.444Z,17.80
2018-07-24T01:22:05.352Z,17.80
2018-07-24T01:23:04.957Z,17.80
2018-07-24T01:24:04.726Z,17.70
2018-07-24T01:25:05.415Z,17.70
2018-07-24T01:26:05.468Z,17.70
2018-07-24T01:27:05.108Z,17.70
2018-07-24T01:28:04.741Z,17.60
2018-07-24T01:29:04.663Z,17.60
2018-07-24T01:30:05.086Z,17.60
2018-07-24T01:31:05.538Z,17.60
2018-07-24T01:32:05.136Z,17.60
2018-07-24T01:33:04.849Z,17.60
2018-07-24T01:34:05.550Z,17.60
2018-07-24T01:35:05.516Z,17.50
2018-07-24T01:36:05.483Z,17.50
2018-07-24T01:37:05.093Z,17.50
2018-07-24T01:38:05.368Z,17.50
2018-07-24T01:39:05.086Z,17.50
2018-07-24T01:40:04.667Z,17.50
2018-07-24T01:41:05.042Z,17.50
2018-07-24T01:42:05.558Z,17.50
2018-07-24T01:43:05.528Z,17.50
2018-07-24T01:44:04.979Z,17.50
2018-07-24T01:45:04.982Z,17.50
2018-07-24T01:46:05.067Z,17.50
2018-07-24T01:47:04.795Z,17.50
2018-07-24T01:48:04.627Z,17.50
2018-07-24T01:49:04.533Z,17.50
2018-07-24T01:50:05.519Z,17.50
2018-07-24T01:51:04.572Z,17.50
2018-07-24T01:52:05.301Z,17.50
2018-07-24T01:53:05.066Z,17.50
2018-07-24T01:54:04.997Z,17.50
2018-07-24T01:55:04.685Z,17.40
2018-07-24T01:56:05.345Z,17.40
2018-07-24T01:57:04.725Z,17.40
2018-07-24T01:58:04.841Z,17.40
2018-07-24T01:59:04.976Z,17.40
2018-07-24T02:00:05.385Z,17.40
2018-07-24T02:01:04.735Z,17.40
2018-07-24T02:02:04.712Z,17.40
2018-07-24T02:03:05.449Z,17.30
2018-07-24T02:04:05.258Z,17.40
2018-07-24T02:05:04.674Z,17.30
2018-07-24T02:06:04.741Z,17.30
2018-07-24T02:07:05.226Z,17.30
2018-07-24T02:08:04.909Z,17.30
2018-07-24T02:09:05.425Z,17.30
2018-07-24T02:10:05.496Z,17.30
2018-07-24T02:11:05.407Z,17.30
2018-07-24T02:12:05.368Z,17.30
2018-07-24T02:13:05.094Z,17.30
2018-07-24T02:14:05.177Z,17.30
2018-07-24T02:15:04.676Z,17.20
2018-07-24T02:16:05.325Z,17.20
2018-07-24T02:17:05.217Z,17.20
2018-07-24T02:18:05.339Z,17.20
2018-07-24T02:19:05.017Z,17.20
2018-07-24T02:20:05.067Z,17.20
2018-07-24T02:21:04.961Z,17.20
2018-07-24T02:22:04.904Z,17.20
2018-07-24T02:23:05.076Z,17.20
2018-07-24T02:24:04.892Z,17.20
2018-07-24T02:25:05.530Z,17.20
2018-07-24T02:26:04.712Z,17.20
2018-07-24T02:27:04.690Z,17.20
2018-07-24T02:28:05.089Z,17.20
2018-07-24T02:29:04.681Z,17.20
2018-07-24T02:30:04.723Z,17.20
2018-07-24T02:31:05.542Z,17.20
2018-07-24T02:32:05.621Z,17.20
2018-07-24T02:33:05.382Z,17.20
2018-07-24T02:34:05.058Z,17.20
2018-07-24T02:35:04.927Z,17.10
2018-07-24T02:36:04.751Z,17.10
2018-07-24T02:37:08.407Z,17.10
2018-07-24T02:38:05.271Z,17.10
2018-07-24T02:39:05.176Z,17.10
2018-07-24T02:40:05.326Z,17.10
2018-07-24T02:41:04.694Z,17.10
2018-07-24T02:42:04.845Z,17.10
2018-07-24T02:43:05.603Z,17.00
2018-07-24T02:44:04.728Z,17.00
2018-07-24T02:45:05.313Z,17.00
2018-07-24T02:46:05.439Z,17.00
2018-07-24T02:47:04.633Z,17.00
2018-07-24T02:48:05.217Z,17.00
2018-07-24T02:49:04.847Z,16.90
2018-07-24T02:50:05.799Z,16.90
2018-07-24T02:51:05.386Z,16.90
2018-07-24T02:52:05.273Z,16.90
2018-07-24T02:53:05.100Z,16.90
2018-07-24T02:54:04.901Z,16.90
2018-07-24T02:55:05.491Z,16.90
2018-07-24T02:56:05.385Z,16.90
2018-07-24T02:57:05.279Z,16.90
2018-07-24T02:58:05.070Z,16.80
2018-07-24T02:59:04.983Z,16.80
2018-07-24T03:00:05.072Z,16.80
2018-07-24T03:01:05.060Z,16.80
2018-07-24T03:02:04.622Z,16.80
2018-07-24T03:03:04.879Z,16.80
2018-07-24T03:04:05.604Z,16.80
2018-07-24T03:05:04.648Z,16.80
2018-07-24T03:06:04.754Z,16.70
2018-07-24T03:07:05.286Z,16.70
2018-07-24T03:08:04.686Z,16.70
2018-07-24T03:09:04.744Z,16.70
2018-07-24T03:10:05.348Z,16.70
2018-07-24T03:11:05.524Z,16.70
2018-07-24T03:12:04.803Z,16.70
2018-07-24T03:13:04.573Z,16.70
2018-07-24T03:14:05.170Z,16.70
2018-07-24T03:15:04.716Z,16.70
2018-07-24T03:16:05.179Z,16.70
2018-07-24T03:17:05.122Z,16.60
2018-07-24T03:18:04.894Z,16.60
2018-07-24T03:19:05.123Z,16.60
2018-07-24T03:20:04.694Z,16.60
2018-07-24T03:21:05.429Z,16.60
2018-07-24T03:22:05.334Z,16.60
2018-07-24T03:23:04.709Z,16.60
2018-07-24T03:24:10.363Z,16.60
2018-07-24T03:25:05.188Z,16.60
2018-07-24T03:26:05.825Z,16.60
2018-07-24T03:27:04.727Z,16.60
2018-07-24T03:28:04.739Z,16.60
2018-07-24T03:29:04.635Z,16.60
2018-07-24T03:30:04.874Z,16.50
2018-07-24T03:31:05.653Z,16.50
2018-07-24T03:32:05.487Z,16.50
2018-07-24T03:33:05.432Z,16.50
2018-07-24T03:34:05.409Z,16.50
2018-07-24T03:35:10.545Z,16.50
2018-07-24T03:36:05.479Z,16.50
2018-07-24T03:37:05.232Z,16.40
2018-07-24T03:38:04.745Z,16.40
2018-07-24T03:39:04.837Z,16.40
2018-07-24T03:40:04.598Z,16.40
2018-07-24T03:41:05.183Z,16.40
2018-07-24T03:42:05.550Z,16.40
2018-07-24T03:43:10.172Z,16.40
2018-07-24T03:44:05.236Z,16.40
2018-07-24T03:45:04.850Z,16.40
2018-07-24T03:46:05.587Z,16.40
2018-07-24T03:47:04.948Z,16.40
2018-07-24T03:48:04.910Z,16.40
2018-07-24T03:49:05.062Z,16.40
2018-07-24T03:50:05.140Z,16.40
2018-07-24T03:51:04.639Z,16.40
2018-07-24T03:52:04.700Z,16.40
2018-07-24T03:53:05.509Z,16.40
2018-07-24T03:54:04.934Z,16.40
2018-07-24T03:55:04.939Z,16.40
2018-07-24T03:56:05.355Z,16.40
2018-07-24T03:57:04.816Z,16.40
2018-07-24T03:58:04.809Z,16.40
2018-07-24T03:59:05.439Z,16.40
2018-07-24T04:00:05.088Z,16.40
2018-07-24T04:01:05.099Z,16.40
2018-07-24T04:02:05.151Z,16.50
2018-07-24T04:03:05.340Z,16.50
2018-07-24T04:04:04.935Z,16.50
2018-07-24T04:05:04.834Z,16.50
2018-07-24T04:06:04.841Z,16.50
2018-07-24T04:07:05.494Z,16.60
2018-07-24T04:08:05.029Z,16.60
2018-07-24T04:09:04.789Z,16.60
2018-07-24T04:10:05.294Z,16.70
2018-07-24T04:11:04.789Z,16.80
2018-07-24T04:12:05.175Z,16.80
2018-07-24T04:13:05.369Z,16.80
2018-07-24T04:14:05.582Z,16.90
2018-07-24T04:15:04.938Z,16.90
2018-07-24T04:16:05.588Z,17.00
2018-07-24T04:17:04.902Z,17.00
2018-07-24T04:18:04.674Z,17.10
2018-07-24T04:19:04.857Z,17.20
2018-07-24T04:20:05.165Z,17.20
2018-07-24T04:21:05.303Z,17.30
2018-07-24T04:22:05.061Z,17.40
2018-07-24T04:23:04.846Z,17.50
2018-07-24T04:24:04.943Z,17.60
2018-07-24T04:25:05.252Z,17.70
2018-07-24T04:26:05.487Z,17.80
2018-07-24T04:27:04.839Z,17.90
2018-07-24T04:28:04.668Z,18.00
2018-07-24T04:29:05.522Z,18.20
2018-07-24T04:30:05.448Z,18.30
2018-07-24T04:31:04.727Z,18.40
2018-07-24T04:32:04.824Z,18.50
2018-07-24T04:33:04.833Z,18.70
2018-07-24T04:34:04.622Z,18.80
2018-07-24T04:35:05.010Z,18.90
2018-07-24T04:36:04.750Z,19.00
2018-07-24T04:37:04.797Z,19.20
2018-07-24T04:38:05.225Z,19.30
2018-07-24T04:39:04.808Z,19.40
2018-07-24T04:40:05.381Z,19.50
2018-07-24T04:41:05.032Z,19.60
2018-07-24T04:42:04.734Z,19.70
2018-07-24T04:43:05.420Z,19.90
2018-07-24T04:44:05.199Z,20.00
2018-07-24T04:45:05.156Z,20.10
2018-07-24T04:46:05.142Z,20.20
2018-07-24T04:47:04.908Z,20.30
2018-07-24T04:48:04.799Z,20.50
2018-07-24T04:49:05.500Z,20.60
2018-07-24T04:50:04.606Z,20.70
2018-07-24T04:51:05.368Z,20.80
2018-07-24T04:52:05.136Z,20.90
2018-07-24T04:53:05.316Z,21.10
2018-07-24T04:54:05.393Z,21.20
2018-07-24T04:55:04.981Z,21.30
2018-07-24T04:56:05.563Z,21.40
2018-07-24T04:57:05.396Z,21.50
2018-07-24T04:58:05.393Z,21.60
2018-07-24T04:59:05.505Z,21.60
2018-07-24T05:00:05.060Z,21.70
2018-07-24T05:01:05.687Z,21.80
2018-07-24T05:02:05.449Z,21.90
2018-07-24T05:03:06.425Z,22.00
2018-07-24T05:04:05.095Z,22.10
2018-07-24T05:05:04.926Z,22.20
2018-07-24T05:06:05.277Z,22.30
2018-07-24T05:07:05.638Z,22.40
2018-07-24T05:08:05.324Z,22.50
2018-07-24T05:09:05.198Z,22.60
2018-07-24T05:10:05.042Z,22.60
2018-07-24T05:11:05.241Z,22.80
2018-07-24T05:12:04.866Z,22.80
2018-07-24T05:13:05.465Z,22.90
2018-07-24T05:14:05.303Z,23.00
2018-07-24T05:15:05.187Z,23.10
2018-07-24T05:16:04.861Z,23.20
2018-07-24T05:17:04.632Z,23.30
2018-07-24T05:18:05.503Z,23.40
2018-07-24T05:19:05.338Z,23.50
2018-07-24T05:20:05.535Z,23.60
2018-07-24T05:21:10.083Z,23.70
2018-07-24T05:22:05.256Z,23.80
2018-07-24T05:23:05.124Z,23.80
2018-07-24T05:24:05.186Z,23.90
2018-07-24T05:25:05.713Z,24.00
2018-07-24T05:26:05.395Z,24.10
2018-07-24T05:27:05.613Z,24.20
2018-07-24T05:28:04.581Z,24.20
2018-07-24T05:29:05.542Z,24.30
2018-07-24T05:30:05.149Z,24.40
2018-07-24T05:31:05.592Z,24.40
2018-07-24T05:32:05.149Z,24.50
2018-07-24T05:33:04.956Z,24.60
2018-07-24T05:34:05.063Z,24.60
2018-07-24T05:35:04.764Z,24.70
2018-07-24T05:36:04.671Z,24.70
2018-07-24T05:37:05.393Z,24.80
2018-07-24T05:38:04.739Z,24.80
2018-07-24T05:39:05.346Z,24.80
2018-07-24T05:40:04.719Z,24.90
2018-07-24T05:41:05.059Z,24.90
2018-07-24T05:42:04.662Z,24.90
2018-07-24T05:43:05.275Z,25.00
2018-07-24T05:44:05.092Z,25.00
2018-07-24T05:45:04.835Z,25.10
2018-07-24T05:46:04.922Z,25.10
2018-07-24T05:47:05.590Z,25.20
2018-07-24T05:48:04.690Z,25.20
2018-07-24T05:49:05.586Z,25.30
2018-07-24T05:50:05.498Z,25.40
2018-07-24T05:51:05.547Z,25.40
2018-07-24T05:52:05.134Z,25.50
2018-07-24T05:53:05.541Z,25.50
2018-07-24T05:54:05.428Z,25.60
2018-07-24T05:55:05.388Z,25.60
2018-07-24T05:56:05.203Z,25.70
2018-07-24T05:57:04.984Z,25.70
2018-07-24T05:58:05.147Z,25.80
2018-07-24T05:59:04.970Z,25.90
2018-07-24T06:00:04.670Z,25.90
2018-07-24T06:01:05.417Z,26.00
2018-07-24T06:02:05.363Z,26.10
2018-07-24T06:03:04.957Z,26.10
2018-07-24T06:04:05.498Z,26.20
2018-07-24T06:05:05.575Z,26.30
2018-07-24T06:06:05.465Z,26.30
2018-07-24T06:07:04.832Z,26.40
2018-07-24T06:08:05.386Z,26.50
2018-07-24T06:09:05.375Z,26.50
2018-07-24T06:10:05.209Z,26.60
2018-07-24T06:11:04.633Z,26.60
2018-07-24T06:12:04.777Z,26.70
2018-07-24T06:13:04.991Z,26.70
2018-07-24T06:14:04.728Z,26.80
2018-07-24T06:15:04.802Z,26.90
2018-07-24T06:16:04.843Z,26.90
2018-07-24T06:17:04.957Z,26.90
2018-07-24T06:18:05.208Z,27.00
2018-07-24T06:19:04.849Z,27.10
2018-07-24T06:20:04.567Z,27.10
2018-07-24T06:21:05.040Z,27.10
2018-07-24T06:22:04.853Z,27.20
2018-07-24T06:23:04.900Z,27.30
2018-07-24T06:24:04.986Z,27.30
2018-07-24T06:25:05.272Z,27.30
2018-07-24T06:26:05.151Z,27.40
2018-07-24T06:27:05.174Z,27.40
2018-07-24T06:28:05.098Z,27.50
2018-07-24T06:29:04.645Z,27.50
2018-07-24T06:30:05.160Z,27.60
2018-07-24T06:31:05.507Z,27.70
2018-07-24T06:32:05.080Z,27.70
2018-07-24T06:33:05.111Z,27.70
2018-07-24T06:34:05.543Z,27.70
2018-07-24T06:35:05.501Z,27.80
2018-07-24T06:36:05.099Z,27.80
2018-07-24T06:37:05.021Z,27.80
2018-07-24T06:38:04.707Z,27.90
2018-07-24T06:39:04.931Z,27.90
2018-07-24T06:40:04.736Z,27.90
2018-07-24T06:41:04.865Z,27.90
2018-07-24T06:42:05.219Z,27.90
2018-07-24T06:43:05.344Z,28.00
2018-07-24T06:44:05.193Z,28.00
2018-07-24T06:45:05.298Z,28.00
2018-07-24T06:46:04.612Z,28.00
2018-07-24T06:47:04.557Z,28.10
2018-07-24T06:48:05.178Z,28.10
2018-07-24T06:49:04.768Z,28.20
2018-07-24T06:50:05.493Z,28.20
2018-07-24T06:51:05.125Z,28.20
2018-07-24T06:52:04.672Z,28.30
2018-07-24T06:53:04.721Z,28.30
2018-07-24T06:54:05.420Z,28.30
2018-07-24T06:55:04.715Z,28.40
2018-07-24T06:56:05.479Z,28.40
2018-07-24T06:57:05.181Z,28.40
2018-07-24T06:58:04.812Z,28.40
2018-07-24T06:59:05.472Z,28.50
2018-07-24T07:00:05.440Z,28.50
2018-07-24T07:01:10.412Z,28.60
2018-07-24T07:02:05.274Z,28.60
2018-07-24T07:03:05.311Z,28.60
2018-07-24T07:04:05.037Z,28.60
2018-07-24T07:05:05.273Z,28.70
2018-07-24T07:06:05.638Z,28.70
2018-07-24T07:07:05.196Z,28.70
2018-07-24T07:08:05.385Z,28.70
2018-07-24T07:09:04.785Z,28.70
2018-07-24T07:10:04.663Z,28.70
2018-07-24T07:11:04.695Z,28.70
2018-07-24T07:12:05.074Z,28.70
2018-07-24T07:13:05.029Z,28.80
2018-07-24T07:14:05.481Z,28.80
2018-07-24T07:15:05.050Z,28.80
2018-07-24T07:16:04.721Z,28.90
2018-07-24T07:17:05.271Z,28.90
2018-07-24T07:18:05.321Z,28.90
2018-07-24T07:19:04.933Z,28.90
2018-07-24T07:20:04.890Z,28.90
2018-07-24T07:21:04.982Z,28.90
2018-07-24T07:22:05.535Z,28.90
2018-07-24T07:23:05.181Z,28.90
2018-07-24T07:24:04.847Z,28.90
2018-07-24T07:25:04.850Z,28.90
2018-07-24T07:26:05.447Z,28.90
2018-07-24T07:27:05.489Z,28.90
2018-07-24T07:28:05.517Z,28.90
2018-07-24T07:29:05.312Z,28.90
2018-07-24T07:30:05.437Z,28.90
2018-07-24T07:31:05.803Z,29.00
2018-07-24T07:32:05.097Z,29.00
2018-07-24T07:33:05.294Z,29.00
2018-07-24T07:34:04.948Z,29.10
2018-07-24T07:35:05.261Z,29.10
2018-07-24T07:36:05.296Z,29.10
2018-07-24T07:37:04.955Z,29.20
2018-07-24T07:38:04.782Z,29.20
2018-07-24T07:39:05.335Z,29.20
2018-07-24T07:40:05.216Z,29.30
2018-07-24T07:41:05.533Z,29.30
2018-07-24T07:42:04.905Z,29.30
2018-07-24T07:43:04.805Z,29.40
2018-07-24T07:44:05.443Z,29.40
2018-07-24T07:45:04.899Z,29.40
2018-07-24T07:46:04.536Z,29.40
2018-07-24T07:47:05.043Z,29.40
2018-07-24T07:48:04.603Z,29.40
2018-07-24T07:49:05.445Z,29.40
2018-07-24T07:50:05.301Z,29.40
2018-07-24T07:51:05.541Z,29.40
2018-07-24T07:52:05.129Z,29.40
2018-07-24T07:53:04.860Z,29.40
2018-07-24T07:54:05.405Z,29.50
2018-07-24T07:55:05.126Z,29.50
2018-07-24T07:56:05.131Z,29.50
2018-07-24T07:57:04.588Z,29.40
2018-07-24T07:58:05.255Z,29.40
2018-07-24T07:59:04.725Z,29.40
2018-07-24T08:00:05.127Z,29.40
2018-07-24T08:01:04.833Z,29.40
2018-07-24T08:02:05.567Z,29.40
2018-07-24T08:03:04.994Z,29.40
2018-07-24T08:04:04.936Z,29.40
2018-07-24T08:05:05.483Z,29.40
2018-07-24T08:06:05.312Z,29.30
2018-07-24T08:07:05.272Z,29.30
2018-07-24T08:08:04.859Z,29.30
2018-07-24T08:09:05.121Z,29.20
2018-07-24T08:10:04.870Z,29.20
2018-07-24T08:11:05.502Z,29.20
2018-07-24T08:12:04.924Z,29.30
2018-07-24T08:13:05.569Z,29.30
2018-07-24T08:14:05.232Z,29.30
2018-07-24T08:15:05.164Z,29.20
2018-07-24T08:16:04.755Z,29.20
2018-07-24T08:17:04.740Z,29.20
2018-07-24T08:18:04.754Z,29.20
2018-07-24T08:19:04.668Z,29.20
2018-07-24T08:20:04.877Z,29.20
2018-07-24T08:21:05.415Z,29.20
2018-07-24T08:22:04.842Z,29.20
2018-07-24T08:23:05.376Z,29.20
2018-07-24T08:24:04.809Z,29.30
2018-07-24T08:25:04.816Z,29.30
2018-07-24T08:26:05.523Z,29.30
2018-07-24T08:27:05.420Z,29.30
2018-07-24T08:28:05.271Z,29.40
2018-07-24T08:29:05.432Z,29.40
2018-07-24T08:30:04.991Z,29.30
2018-07-24T08:31:04.606Z,29.40
2018-07-24T08:32:04.655Z,29.40
2018-07-24T08:33:04.721Z,29.40
2018-07-24T08:34:05.496Z,29.40
2018-07-24T08:35:05.243Z,29.50
2018-07-24T08:36:05.029Z,29.50
2018-07-24T08:37:04.651Z,29.50
2018-07-24T08:38:05.406Z,29.50
2018-07-24T08:39:05.211Z,29.50
2018-07-24T08:40:05.116Z,29.50
2018-07-24T08:41:05.242Z,29.50
2018-07-24T08:42:05.167Z,29.50
2018-07-24T08:43:04.758Z,29.60
2018-07-24T08:44:05.282Z,29.60
2018-07-24T08:45:05.085Z,29.60
2018-07-24T08:46:04.703Z,29.60
2018-07-24T08:47:04.811Z,29.70
2018-07-24T08:48:04.790Z,29.70
2018-07-24T08:49:04.946Z,29.70
2018-07-24T08:50:04.655Z,29.70
2018-07-24T08:51:05.301Z,29.70
2018-07-24T08:52:04.760Z,29.70
2018-07-24T08:53:04.926Z,29.70
2018-07-24T08:54:05.622Z,29.70
2018-07-24T08:55:05.255Z,29.70
2018-07-24T08:56:05.424Z,29.70
2018-07-24T08:57:05.415Z,29.70
2018-07-24T08:58:04.926Z,29.70
2018-07-24T08:59:04.684Z,29.70
2018-07-24T09:00:05.406Z,29.70
2018-07-24T09:01:04.948Z,29.70
2018-07-24T09:02:04.978Z,29.70
2018-07-24T09:03:05.139Z,29.70
2018-07-24T09:04:04.856Z,29.70
2018-07-24T09:05:05.205Z,29.70
2018-07-24T09:06:04.827Z,29.70
2018-07-24T09:07:05.416Z,29.70
2018-07-24T09:08:04.662Z,29.80
2018-07-24T09:09:05.508Z,29.80
2018-07-24T09:10:04.918Z,29.80
2018-07-24T09:11:05.647Z,29.90
2018-07-24T09:12:04.768Z,29.90
2018-07-24T09:13:04.858Z,30.00
2018-07-24T09:14:04.650Z,30.00
2018-07-24T09:15:05.188Z,30.00
2018-07-24T09:16:04.835Z,30.00
2018-07-24T09:17:04.844Z,30.00
2018-07-24T09:18:05.131Z,30.10
2018-07-24T09:19:04.810Z,30.10
2018-07-24T09:20:05.409Z,30.10
2018-07-24T09:21:04.931Z,30.00
2018-07-24T09:22:05.171Z,30.00
2018-07-24T09:23:04.568Z,30.00
2018-07-24T09:24:04.594Z,30.00
2018-07-24T09:25:04.886Z,30.00
2018-07-24T09:26:05.514Z,30.00
2018-07-24T09:27:05.407Z,29.90
2018-07-24T09:28:04.801Z,29.90
2018-07-24T09:29:04.546Z,29.80
2018-07-24T09:30:05.389Z,29.80
2018-07-24T09:31:04.552Z,29.80
2018-07-24T09:32:05.275Z,29.80
2018-07-24T09:33:05.303Z,29.80
2018-07-24T09:34:04.956Z,29.80
2018-07-24T09:35:04.810Z,29.90
2018-07-24T09:36:05.332Z,29.90
2018-07-24T09:37:04.759Z,29.90
2018-07-24T09:38:05.335Z,30.00
2018-07-24T09:39:04.847Z,30.10
2018-07-24T09:40:04.645Z,30.10
2018-07-24T09:41:04.578Z,30.20
2018-07-24T09:42:05.225Z,30.20
2018-07-24T09:43:04.709Z,30.20
2018-07-24T09:44:05.100Z,30.30
2018-07-24T09:45:05.067Z,30.30
2018-07-24T09:46:04.648Z,30.40
2018-07-24T09:47:05.290Z,30.40
2018-07-24T09:48:04.873Z,30.40
2018-07-24T09:49:05.077Z,30.40
2018-07-24T09:50:04.556Z,30.50
2018-07-24T09:51:05.011Z,30.50
2018-07-24T09:52:05.538Z,30.50
2018-07-24T09:53:05.415Z,30.60
2018-07-24T09:54:04.957Z,30.60
2018-07-24T09:55:05.645Z,30.60
2018-07-24T09:56:05.276Z,30.60
2018-07-24T09:57:04.948Z,30.60
2018-07-24T09:58:05.326Z,30.70
2018-07-24T09:59:10.372Z,30.70
2018-07-24T10:00:05.165Z,30.70
2018-07-24T10:01:04.800Z,30.70
2018-07-24T10:02:05.644Z,30.80
2018-07-24T10:03:05.297Z,30.80
2018-07-24T10:04:05.184Z,30.80
2018-07-24T10:05:05.198Z,30.80
2018-07-24T10:06:05.247Z,30.80
2018-07-24T10:07:05.378Z,30.70
2018-07-24T10:08:05.423Z,30.70
2018-07-24T10:09:04.961Z,30.70
2018-07-24T10:10:05.480Z,30.70
2018-07-24T10:11:05.521Z,30.70
2018-07-24T10:12:04.956Z,30.60
2018-07-24T10:13:05.680Z,30.60
2018-07-24T10:14:10.279Z,30.60
2018-07-24T10:15:04.649Z,30.60
2018-07-24T10:16:05.460Z,30.60
2018-07-24T10:17:05.527Z,30.50
2018-07-24T10:18:05.177Z,30.50
2018-07-24T10:19:04.576Z,30.50
2018-07-24T10:20:05.048Z,30.50
2018-07-24T10:21:05.170Z,30.50
2018-07-24T10:22:04.951Z,30.50
2018-07-24T10:23:05.581Z,30.50
2018-07-24T10:24:04.773Z,30.50
2018-07-24T10:25:04.928Z,30.60
2018-07-24T10:26:05.341Z,30.60
2018-07-24T10:27:04.993Z,30.60
2018-07-24T10:28:04.855Z,30.60
2018-07-24T10:29:04.761Z,30.60
2018-07-24T10:30:04.772Z,30.70
2018-07-24T10:31:04.845Z,30.70
2018-07-24T10:32:04.807Z,30.70
2018-07-24T10:33:05.067Z,30.60
2018-07-24T10:34:05.323Z,30.60
2018-07-24T10:35:05.016Z,30.60
2018-07-24T10:36:05.325Z,30.60
2018-07-24T10:37:05.464Z,30.60
2018-07-24T10:38:04.712Z,30.60
2018-07-24T10:39:05.204Z,30.60
2018-07-24T10:40:05.241Z,30.60
2018-07-24T10:41:05.063Z,30.50
2018-07-24T10:42:05.422Z,30.60
2018-07-24T10:43:04.777Z,30.60
2018-07-24T10:44:05.558Z,30.60
2018-07-24T10:45:04.727Z,30.60
2018-07-24T10:46:05.280Z,30.70
2018-07-24T10:47:05.405Z,30.70
2018-07-24T10:48:04.785Z,30.70
2018-07-24T10:49:05.383Z,30.70
2018-07-24T10:50:04.537Z,30.70
2018-07-24T10:51:05.371Z,30.70
2018-07-24T10:52:05.283Z,30.80
2018-07-24T10:53:05.043Z,30.80
2018-07-24T10:54:04.571Z,30.80
2018-07-24T10:55:05.183Z,30.80
2018-07-24T10:56:05.331Z,30.80
2018-07-24T10:57:04.962Z,30.80
2018-07-24T10:58:04.781Z,30.80
2018-07-24T10:59:04.722Z,30.80
2018-07-24T11:00:05.367Z,30.80
2018-07-24T11:01:05.152Z,30.80
2018-07-24T11:02:05.220Z,30.80
2018-07-24T11:03:05.029Z,30.80
2018-07-24T11:04:05.895Z,30.80
2018-07-24T11:05:05.467Z,30.80
2018-07-24T11:06:05.985Z,30.80
2018-07-24T11:07:05.351Z,30.80
2018-07-24T11:08:05.373Z,30.80
2018-07-24T11:09:05.027Z,30.80
2018-07-24T11:10:04.982Z,30.80
2018-07-24T11:11:05.007Z,30.80
2018-07-24T11:12:05.307Z,30.80
2018-07-24T11:13:05.069Z,30.90
2018-07-24T11:14:04.846Z,30.90
2018-07-24T11:15:04.795Z,31.00
2018-07-24T11:16:05.090Z,31.00
2018-07-24T11:17:05.473Z,31.10
2018-07-24T11:18:05.316Z,31.20
2018-07-24T11:19:04.881Z,31.20
2018-07-24T11:20:05.524Z,31.20
2018-07-24T11:21:04.981Z,31.20
2018-07-24T11:22:05.709Z,31.20
2018-07-24T11:23:05.413Z,31.20
2018-07-24T11:24:05.345Z,31.20
2018-07-24T11:25:04.932Z,31.20
2018-07-24T11:26:04.959Z,31.20
2018-07-24T11:27:04.594Z,31.10
2018-07-24T11:28:05.505Z,31.10
2018-07-24T11:29:04.931Z,31.10
2018-07-24T11:30:05.456Z,31.10
2018-07-24T11:31:05.162Z,31.10
2018-07-24T11:32:04.631Z,31.10
2018-07-24T11:33:05.234Z,31.10
2018-07-24T11:34:04.973Z,31.10
2018-07-24T11:35:04.633Z,31.10
2018-07-24T11:36:05.714Z,31.10
2018-07-24T11:37:04.545Z,31.10
2018-07-24T11:38:06.236Z,31.10
2018-07-24T11:39:05.358Z,31.20
2018-07-24T11:40:05.285Z,31.20
2018-07-24T11:41:04.822Z,31.30
2018-07-24T11:42:04.595Z,31.30
2018-07-24T11:43:07.798Z,31.30
2018-07-24T11:44:04.832Z,31.30
2018-07-24T11:45:05.471Z,31.30
2018-07-24T11:46:05.221Z,31.40
2018-07-24T11:47:05.385Z,31.40
2018-07-24T11:48:05.281Z,31.40
2018-07-24T11:49:04.974Z,31.30
2018-07-24T11:50:05.374Z,31.30
2018-07-24T11:51:05.131Z,31.30
2018-07-24T11:52:05.115Z,31.30
2018-07-24T11:53:04.586Z,31.30
2018-07-24T11:54:05.026Z,31.30
2018-07-24T11:55:05.322Z,31.30
2018-07-24T11:56:05.662Z,31.30
2018-07-24T11:57:05.026Z,31.30
2018-07-24T11:58:04.757Z,31.30
2018-07-24T11:59:05.204Z,31.30
2018-07-24T12:00:04.644Z,31.30
2018-07-24T12:01:05.502Z,31.30
2018-07-24T12:02:05.470Z,31.30
2018-07-24T12:03:05.092Z,31.30
2018-07-24T12:04:04.643Z,31.30
2018-07-24T12:05:05.496Z,31.30
2018-07-24T12:06:05.195Z,31.30
2018-07-24T12:07:09.815Z,31.30
2018-07-24T12:08:04.909Z,31.30
2018-07-24T12:09:05.395Z,31.30
2018-07-24T12:10:05.044Z,31.30
2018-07-24T12:11:05.117Z,31.30
2018-07-24T12:12:04.923Z,31.30
2018-07-24T12:13:04.873Z,31.30
2018-07-24T12:14:05.058Z,31.40
2018-07-24T12:15:05.236Z,31.40
2018-07-24T12:16:04.605Z,31.40
2018-07-24T12:17:05.595Z,31.40
2018-07-24T12:18:04.919Z,31.40
2018-07-24T12:19:04.770Z,31.40
2018-07-24T12:20:04.678Z,31.40
2018-07-24T12:21:05.401Z,31.40
2018-07-24T12:22:04.660Z,31.40
2018-07-24T12:23:05.138Z,31.40
2018-07-24T12:24:05.042Z,31.40
2018-07-24T12:25:04.938Z,31.40
2018-07-24T12:26:05.113Z,31.40
2018-07-24T12:27:04.917Z,31.40
2018-07-24T12:28:05.089Z,31.40
2018-07-24T12:29:05.144Z,31.40
2018-07-24T12:30:05.559Z,31.50
2018-07-24T12:31:04.683Z,31.50
2018-07-24T12:32:05.489Z,31.50
2018-07-24T12:33:05.393Z,31.50
2018-07-24T12:34:05.493Z,31.60
2018-07-24T12:35:04.724Z,31.60
2018-07-24T12:36:04.987Z,31.60
2018-07-24T12:37:05.311Z,31.60
2018-07-24T12:38:05.460Z,31.70
2018-07-24T12:39:05.380Z,31.70
2018-07-24T12:40:05.557Z,31.70
2018-07-24T12:41:04.966Z,31.70
2018-07-24T12:42:04.690Z,31.70
2018-07-24T12:43:04.687Z,31.70
2018-07-24T12:44:04.786Z,31.70
2018-07-24T12:45:05.244Z,31.70
2018-07-24T12:46:04.844Z,31.70
2018-07-24T12:47:04.648Z,31.70
2018-07-24T12:48:05.216Z,31.70
2018-07-24T12:49:05.173Z,31.70
2018-07-24T12:50:05.853Z,31.70
2018-07-24T12:51:04.833Z,31.70
2018-07-24T12:52:05.217Z,31.70